createdAt,value
2023-03-08T00:00:23.312Z,61.40
2023-03-08T00:02:53.906Z,61.40
2023-03-08T00:05:21.614Z,61.40
2023-03-08T00:07:49.346Z,61.36
2023-03-08T00:10:17.121Z,61.26
2023-03-08T00:12:44.874Z,61.36
2023-03-08T00:15:13.020Z,61.38
2023-03-08T00:17:41.111Z,61.39
2023-03-08T00:20:12.470Z,61.51
2023-03-08T00:22:41.403Z,61.17
2023-03-08T00:25:10.929Z,61.50
2023-03-08T00:27:39.224Z,61.21
2023-03-08T00:30:08.251Z,61.50
2023-03-08T00:32:36.080Z,61.56
2023-03-08T00:35:03.916Z,61.59
2023-03-08T00:37:33.358Z,61.66
2023-03-08T00:40:01.155Z,61.79
2023-03-08T00:42:29.008Z,61.52
2023-03-08T00:44:56.752Z,61.63
2023-03-08T00:47:24.484Z,61.63
2023-03-08T00:49:52.213Z,61.67
2023-03-08T00:52:20.013Z,61.86
2023-03-08T00:54:49.116Z,61.34
2023-03-08T00:57:17.230Z,61.61
2023-03-08T00:59:44.921Z,61.80
2023-03-08T01:02:12.662Z,61.66
2023-03-08T01:04:40.361Z,61.87
2023-03-08T01:07:08.177Z,61.82
2023-03-08T01:09:35.915Z,61.98
2023-03-08T01:12:05.583Z,61.72
2023-03-08T01:14:33.328Z,61.84
2023-03-08T01:17:01.038Z,61.94
2023-03-08T01:19:28.813Z,61.85
2023-03-08T01:21:56.478Z,61.86
2023-03-08T01:24:24.180Z,61.92
2023-03-08T01:26:53.794Z,61.95
2023-03-08T01:29:22.886Z,61.92
2023-03-08T01:31:50.539Z,61.93
2023-03-08T01:34:18.234Z,61.98
2023-03-08T01:36:46.198Z,61.96
2023-03-08T01:39:14.094Z,61.96
2023-03-08T01:41:41.808Z,61.94
2023-03-08T01:44:16.890Z,62.02
2023-03-08T01:46:46.216Z,62.01
2023-03-08T01:49:16.777Z,62.14
2023-03-08T01:51:48.188Z,61.91
2023-03-08T01:54:18.805Z,62.12
2023-03-08T01:56:50.493Z,61.90
2023-03-08T01:59:19.507Z,62.10
2023-03-08T02:01:48.740Z,62.25
2023-03-08T02:04:16.550Z,62.16
2023-03-08T02:06:45.422Z,62.22
2023-03-08T02:09:13.699Z,62.13
2023-03-08T02:11:42.955Z,62.24
2023-03-08T02:14:10.823Z,62.43
2023-03-08T02:16:39.078Z,62.22
2023-03-08T02:19:15.815Z,62.32
2023-03-08T02:21:43.617Z,61.97
2023-03-08T02:24:22.651Z,62.08
2023-03-08T02:26:52.071Z,62.20
2023-03-08T02:29:20.042Z,62.10
2023-03-08T02:31:47.761Z,62.15
2023-03-08T02:34:15.536Z,62.17
2023-03-08T02:36:43.247Z,62.35
2023-03-08T02:39:10.977Z,62.00
2023-03-08T02:41:40.041Z,61.89
2023-03-08T02:44:07.797Z,62.18
2023-03-08T02:46:35.926Z,62.29
2023-03-08T02:49:03.615Z,62.20
2023-03-08T02:51:31.461Z,61.90
2023-03-08T02:53:59.232Z,62.15
2023-03-08T02:56:26.949Z,62.22
2023-03-08T02:58:56.242Z,62.19
2023-03-08T03:01:24.443Z,62.14
2023-03-08T03:03:55.401Z,61.91
2023-03-08T03:06:23.931Z,62.26
2023-03-08T03:08:51.829Z,62.02
2023-03-08T03:11:22.120Z,62.24
2023-03-08T03:13:56.764Z,62.49
2023-03-08T03:16:25.541Z,62.14
2023-03-08T03:18:54.543Z,62.38
2023-03-08T03:21:22.907Z,62.20
2023-03-08T03:23:51.141Z,62.30
2023-03-08T03:26:21.699Z,62.34
2023-03-08T03:28:49.777Z,62.16
2023-03-08T03:31:20.401Z,62.38
2023-03-08T03:33:49.101Z,62.17
2023-03-08T03:36:19.690Z,61.93
2023-03-08T03:38:48.239Z,62.23
2023-03-08T03:41:18.554Z,62.51
2023-03-08T03:43:46.808Z,62.52
2023-03-08T03:46:16.688Z,62.24
2023-03-08T03:48:46.487Z,62.39
2023-03-08T03:51:16.542Z,62.73
2023-03-08T03:53:44.496Z,62.46
2023-03-08T03:56:15.149Z,62.17
2023-03-08T03:58:43.229Z,62.40
2023-03-08T04:01:13.090Z,62.35
2023-03-08T04:03:40.832Z,62.46
2023-03-08T04:06:13.426Z,62.29
2023-03-08T04:08:42.613Z,62.34
2023-03-08T04:11:10.748Z,62.30
2023-03-08T04:13:39.335Z,62.36
2023-03-08T04:16:11.835Z,62.10
2023-03-08T04:18:39.647Z,62.30
2023-03-08T04:21:07.786Z,62.55
2023-03-08T04:23:37.221Z,62.50
2023-03-08T04:26:05.938Z,62.25
2023-03-08T04:28:34.143Z,62.39
2023-03-08T04:31:02.333Z,62.51
2023-03-08T04:33:30.096Z,62.37
2023-03-08T04:35:57.931Z,62.44
2023-03-08T04:38:25.628Z,62.50
2023-03-08T04:41:05.482Z,62.57
2023-03-08T04:43:34.572Z,62.54
2023-03-08T04:46:02.988Z,62.44
2023-03-08T04:48:30.708Z,62.40
2023-03-08T04:51:00.650Z,62.66
2023-03-08T04:53:29.861Z,62.36
2023-03-08T04:56:00.509Z,62.35
2023-03-08T04:58:28.374Z,62.59
2023-03-08T05:00:57.154Z,62.53
2023-03-08T05:03:25.018Z,62.82
2023-03-08T05:05:54.447Z,62.58
2023-03-08T05:08:23.405Z,62.63
2023-03-08T05:10:54.848Z,62.73
2023-03-08T05:13:23.902Z,62.48
2023-03-08T05:15:51.598Z,62.34
2023-03-08T05:18:19.332Z,62.28
2023-03-08T05:20:54.908Z,62.70
2023-03-08T05:23:22.860Z,62.61
2023-03-08T05:25:53.517Z,62.42
2023-03-08T05:28:23.393Z,62.61
2023-03-08T05:30:51.347Z,62.63
2023-03-08T05:33:19.817Z,62.39
2023-03-08T05:35:55.360Z,62.46
2023-03-08T05:38:23.409Z,62.98
2023-03-08T05:40:51.635Z,62.52
2023-03-08T05:43:20.314Z,62.29
2023-03-08T05:45:58.415Z,62.51
2023-03-08T05:48:26.617Z,62.46
2023-03-08T05:50:54.725Z,62.46
2023-03-08T05:53:23.504Z,62.27
2023-03-08T05:55:51.268Z,62.62
2023-03-08T05:58:19.020Z,62.14
2023-03-08T06:00:46.695Z,62.28
2023-03-08T06:03:15.891Z,62.50
2023-03-08T06:05:43.618Z,61.86
2023-03-08T06:08:11.331Z,61.54
2023-03-08T06:10:39.064Z,60.79
2023-03-08T06:13:06.802Z,60.88
2023-03-08T06:15:34.540Z,60.74
2023-03-08T06:18:03.429Z,60.58
2023-03-08T06:20:32.883Z,60.78
2023-03-08T06:23:00.711Z,60.25
2023-03-08T06:25:28.485Z,59.51
2023-03-08T06:27:56.460Z,59.92
2023-03-08T06:30:24.213Z,59.71
2023-03-08T06:32:51.928Z,60.18
2023-03-08T06:35:19.745Z,60.12
2023-03-08T06:37:48.889Z,60.51
2023-03-08T06:40:16.987Z,60.81
2023-03-08T06:42:44.723Z,60.87
2023-03-08T06:45:12.878Z,60.89
2023-03-08T06:47:40.680Z,61.23
2023-03-08T06:50:09.308Z,60.85
2023-03-08T06:52:37.795Z,61.27
2023-03-08T06:55:08.119Z,61.41
2023-03-08T06:57:35.817Z,61.34
2023-03-08T07:00:04.339Z,61.56
2023-03-08T07:02:32.034Z,61.77
2023-03-08T07:04:59.733Z,61.40
2023-03-08T07:07:27.538Z,61.73
2023-03-08T07:09:55.397Z,61.45
2023-03-08T07:12:24.475Z,62.12
2023-03-08T07:14:53.360Z,61.79
2023-03-08T07:17:21.727Z,61.72
2023-03-08T07:19:49.482Z,62.01
2023-03-08T07:22:17.238Z,61.95
2023-03-08T07:24:49.672Z,61.65
2023-03-08T07:27:17.638Z,62.04
2023-03-08T07:29:46.738Z,61.89
2023-03-08T07:32:14.692Z,61.89
2023-03-08T07:34:42.559Z,61.53
2023-03-08T07:37:12.923Z,61.49
2023-03-08T07:39:40.783Z,62.03
2023-03-08T07:42:08.682Z,61.87
2023-03-08T07:44:37.092Z,61.88
2023-03-08T07:47:07.436Z,61.45
2023-03-08T07:49:35.205Z,61.74
2023-03-08T07:52:03.358Z,61.74
2023-03-08T07:54:31.088Z,61.90
2023-03-08T07:56:58.885Z,61.86
2023-03-08T07:59:26.671Z,61.78
2023-03-08T08:01:54.399Z,61.87
2023-03-08T08:04:23.900Z,62.15
2023-03-08T08:06:51.787Z,61.62
2023-03-08T08:09:19.500Z,61.58
2023-03-08T08:11:47.211Z,62.07
2023-03-08T08:14:14.958Z,61.87
2023-03-08T08:16:42.720Z,62.00
2023-03-08T08:19:12.352Z,61.86
2023-03-08T08:21:42.282Z,61.96
2023-03-08T08:24:10.182Z,61.98
2023-03-08T08:26:37.931Z,61.87
2023-03-08T08:29:05.849Z,62.10
2023-03-08T08:31:33.721Z,62.05
2023-03-08T08:34:02.277Z,61.74
2023-03-08T08:36:30.060Z,62.00
2023-03-08T08:38:59.107Z,61.60
2023-03-08T08:41:28.003Z,62.05
2023-03-08T08:43:58.885Z,62.05
2023-03-08T08:46:27.804Z,61.77
2023-03-08T08:48:55.722Z,62.28
2023-03-08T08:51:23.835Z,62.00
2023-03-08T08:53:52.621Z,61.98
2023-03-08T08:56:28.418Z,62.32
2023-03-08T08:58:57.127Z,61.80
2023-03-08T09:01:27.054Z,62.13
2023-03-08T09:03:54.897Z,62.16
2023-03-08T09:06:24.146Z,61.36
2023-03-08T09:08:52.762Z,61.22
2023-03-08T09:11:22.381Z,60.49
2023-03-08T09:13:50.159Z,60.11
2023-03-08T09:16:20.656Z,59.37
2023-03-08T09:18:48.763Z,58.95
2023-03-08T09:21:17.254Z,58.10
2023-03-08T09:23:45.727Z,57.78
2023-03-08T09:26:14.044Z,57.18
2023-03-08T09:28:43.106Z,56.87
2023-03-08T09:31:14.857Z,56.49
2023-03-08T09:33:44.272Z,56.66
2023-03-08T09:36:12.492Z,56.51
2023-03-08T09:38:40.230Z,55.95
2023-03-08T09:41:32.719Z,55.56
2023-03-08T09:44:18.552Z,55.73
2023-03-08T09:46:50.221Z,55.24
2023-03-08T09:49:23.862Z,55.79
2023-03-08T09:51:57.753Z,56.14
2023-03-08T09:54:26.646Z,56.18
2023-03-08T09:56:56.557Z,56.97
2023-03-08T09:59:32.722Z,57.52
2023-03-08T10:02:12.144Z,58.51
2023-03-08T10:05:11.787Z,58.99
2023-03-08T10:07:49.471Z,58.94
2023-03-08T10:10:29.571Z,59.43
2023-03-08T10:13:08.465Z,59.96
2023-03-08T10:15:43.066Z,59.86
2023-03-08T10:18:18.031Z,59.97
2023-03-08T10:20:46.790Z,60.13
2023-03-08T10:23:16.445Z,60.21
2023-03-08T10:25:45.480Z,60.69
2023-03-08T10:28:15.812Z,60.53
2023-03-08T10:30:52.014Z,60.70
2023-03-08T10:33:24.118Z,60.74
2023-03-08T10:35:57.679Z,60.74
2023-03-08T10:38:28.609Z,60.80
2023-03-08T10:41:04.144Z,60.89
2023-03-08T10:43:34.186Z,60.91
2023-03-08T10:46:05.757Z,60.57
2023-03-08T10:48:33.835Z,60.39
2023-03-08T10:51:03.919Z,59.48
2023-03-08T10:53:32.592Z,59.33
2023-03-08T10:56:02.751Z,58.67
2023-03-08T10:58:35.103Z,58.74
2023-03-08T11:01:07.297Z,57.87
2023-03-08T11:03:35.604Z,57.29
2023-03-08T11:06:05.079Z,56.69
2023-03-08T11:08:35.356Z,56.11
2023-03-08T11:11:05.508Z,55.37
2023-03-08T11:13:35.503Z,55.78
2023-03-08T11:16:36.666Z,55.22
2023-03-08T11:19:12.402Z,55.88
2023-03-08T11:21:52.030Z,55.31
2023-03-08T11:24:31.711Z,54.82
2023-03-08T11:27:16.683Z,55.70
2023-03-08T11:30:01.124Z,54.69
2023-03-08T11:32:56.615Z,55.22
2023-03-08T11:35:32.863Z,54.60
2023-03-08T11:38:07.490Z,54.79
2023-03-08T11:40:48.216Z,55.65
2023-03-08T11:43:32.086Z,55.43
2023-03-08T11:46:07.837Z,55.17
2023-03-08T11:48:53.868Z,55.35
2023-03-08T11:51:28.596Z,55.07
2023-03-08T11:54:07.505Z,54.85
2023-03-08T11:56:48.090Z,54.28
2023-03-08T11:59:22.479Z,54.48
2023-03-08T12:01:54.858Z,55.49
2023-03-08T12:04:32.156Z,56.17
2023-03-08T12:07:03.407Z,55.88
2023-03-08T12:09:36.823Z,55.93
2023-03-08T12:12:12.596Z,56.35
2023-03-08T12:14:48.873Z,57.57
2023-03-08T12:17:21.287Z,57.98
2023-03-08T12:19:51.695Z,58.43
2023-03-08T12:22:39.888Z,59.04
2023-03-08T12:25:14.248Z,58.92
2023-03-08T12:27:48.338Z,58.71
2023-03-08T12:30:27.716Z,58.99
2023-03-08T12:32:56.463Z,58.08
2023-03-08T12:35:34.126Z,57.38
2023-03-08T12:38:04.253Z,57.22
2023-03-08T12:40:39.474Z,57.23
2023-03-08T12:43:11.406Z,56.42
2023-03-08T12:45:40.790Z,55.57
2023-03-08T12:48:27.576Z,56.53
2023-03-08T12:51:00.902Z,56.32
2023-03-08T12:53:36.153Z,57.17
2023-03-08T12:56:09.271Z,58.26
2023-03-08T12:58:49.564Z,58.36
2023-03-08T13:01:30.302Z,59.15
2023-03-08T13:03:58.472Z,59.81
2023-03-08T13:06:58.740Z,59.30
2023-03-08T13:09:29.822Z,59.81
2023-03-08T13:12:12.973Z,60.26
2023-03-08T13:14:43.339Z,60.43
2023-03-08T13:17:34.030Z,60.57
2023-03-08T13:20:14.024Z,60.00
2023-03-08T13:22:51.638Z,59.75
2023-03-08T13:25:31.355Z,59.30
2023-03-08T13:28:04.915Z,58.10
2023-03-08T13:30:35.900Z,57.92
2023-03-08T13:33:09.106Z,57.27
2023-03-08T13:35:36.911Z,56.90
2023-03-08T13:38:06.843Z,57.34
2023-03-08T13:40:35.700Z,57.95
2023-03-08T13:43:08.593Z,58.18
2023-03-08T13:45:36.569Z,59.23
2023-03-08T13:48:08.818Z,59.13
2023-03-08T13:50:39.615Z,59.65
2023-03-08T13:53:15.799Z,59.51
2023-03-08T13:55:46.459Z,59.73
2023-03-08T13:58:26.497Z,60.08
2023-03-08T14:01:02.852Z,60.29
2023-03-08T14:03:32.777Z,60.55
2023-03-08T14:06:00.904Z,60.64
2023-03-08T14:08:30.416Z,60.62
2023-03-08T14:11:01.526Z,60.18
2023-03-08T14:13:32.323Z,59.33
2023-03-08T14:16:02.876Z,58.61
2023-03-08T14:18:34.681Z,58.37
2023-03-08T14:21:06.570Z,57.42
2023-03-08T14:23:41.893Z,57.02
2023-03-08T14:26:28.655Z,57.02
2023-03-08T14:29:13.890Z,57.58
2023-03-08T14:31:54.389Z,58.25
2023-03-08T14:34:24.287Z,58.82
2023-03-08T14:36:57.695Z,58.30
2023-03-08T14:39:29.423Z,59.42
2023-03-08T14:41:57.785Z,59.66
2023-03-08T14:44:28.998Z,59.94
2023-03-08T14:46:59.572Z,60.52
2023-03-08T14:49:29.401Z,60.67
2023-03-08T14:51:57.228Z,60.82
2023-03-08T14:54:33.376Z,60.52
2023-03-08T14:57:14.905Z,60.75
2023-03-08T14:59:43.295Z,60.98
2023-03-08T15:02:13.609Z,60.79
2023-03-08T15:04:41.623Z,60.50
2023-03-08T15:07:17.509Z,59.83
2023-03-08T15:09:47.357Z,58.99
2023-03-08T15:12:15.141Z,58.62
2023-03-08T15:14:42.970Z,58.03
2023-03-08T15:17:10.768Z,57.15
2023-03-08T15:19:38.563Z,57.26
2023-03-08T15:22:07.371Z,56.76
2023-03-08T15:24:35.264Z,56.03
2023-03-08T15:27:04.558Z,56.17
2023-03-08T15:29:36.860Z,56.98
2023-03-08T15:32:04.584Z,57.20
2023-03-08T15:34:32.520Z,57.98
2023-03-08T15:37:00.213Z,58.54
2023-03-08T15:39:28.058Z,59.04
2023-03-08T15:41:55.780Z,59.48
2023-03-08T15:44:24.901Z,59.69
2023-03-08T15:46:53.059Z,60.02
2023-03-08T15:49:20.887Z,59.99
2023-03-08T15:51:48.581Z,60.22
2023-03-08T15:54:16.415Z,60.28
2023-03-08T15:56:44.172Z,60.56
2023-03-08T15:59:12.481Z,60.83
2023-03-08T16:01:41.734Z,61.01
2023-03-08T16:04:09.477Z,61.27
2023-03-08T16:06:37.168Z,61.05
2023-03-08T16:09:05.037Z,61.31
2023-03-08T16:11:33.160Z,61.26
2023-03-08T16:14:00.968Z,61.23
2023-03-08T16:16:42.625Z,61.78
2023-03-08T16:19:14.033Z,61.44
2023-03-08T16:21:41.722Z,61.50
2023-03-08T16:24:09.575Z,61.88
2023-03-08T16:26:37.253Z,61.87
2023-03-08T16:29:05.082Z,61.87
2023-03-08T16:31:33.947Z,61.76
2023-03-08T16:34:03.239Z,61.08
2023-03-08T16:36:32.400Z,61.48
2023-03-08T16:39:00.301Z,61.69
2023-03-08T16:41:29.998Z,61.66
2023-03-08T16:43:58.102Z,61.71
2023-03-08T16:46:25.998Z,61.78
2023-03-08T16:48:55.102Z,61.90
2023-03-08T16:51:25.064Z,61.92
2023-03-08T16:53:54.680Z,61.83
2023-03-08T16:56:24.228Z,61.40
2023-03-08T16:58:52.643Z,61.87
2023-03-08T17:01:21.118Z,61.82
2023-03-08T17:03:48.999Z,61.75
2023-03-08T17:06:18.984Z,61.92
2023-03-08T17:08:46.914Z,61.86
2023-03-08T17:11:20.059Z,61.51
2023-03-08T17:13:51.028Z,61.59
2023-03-08T17:16:19.685Z,61.27
2023-03-08T17:18:47.583Z,61.09
2023-03-08T17:21:15.371Z,61.64
2023-03-08T17:23:43.758Z,61.74
2023-03-08T17:26:13.284Z,61.42
2023-03-08T17:28:42.685Z,61.61
2023-03-08T17:31:11.610Z,61.74
2023-03-08T17:33:39.873Z,61.73
2023-03-08T17:36:08.538Z,61.66
2023-03-08T17:38:36.429Z,61.74
2023-03-08T17:41:06.125Z,61.74
2023-03-08T17:43:34.101Z,61.34
2023-03-08T17:46:05.235Z,61.13
2023-03-08T17:48:34.444Z,60.08
2023-03-08T17:51:03.412Z,60.09
2023-03-08T17:53:31.478Z,59.06
2023-03-08T17:56:00.225Z,58.85
2023-03-08T17:58:28.352Z,58.62
2023-03-08T18:00:56.351Z,57.32
2023-03-08T18:03:25.710Z,57.41
2023-03-08T18:05:54.181Z,56.38
2023-03-08T18:08:21.930Z,57.40
2023-03-08T18:10:49.637Z,57.67
2023-03-08T18:13:17.372Z,57.40
2023-03-08T18:15:45.108Z,58.00
2023-03-08T18:18:12.840Z,58.25
2023-03-08T18:20:41.951Z,58.52
2023-03-08T18:23:09.753Z,59.10
2023-03-08T18:25:39.214Z,59.20
2023-03-08T18:28:13.405Z,60.15
2023-03-08T18:30:41.066Z,60.21
2023-03-08T18:33:08.789Z,60.24
2023-03-08T18:35:36.578Z,60.48
2023-03-08T18:38:05.732Z,60.36
2023-03-08T18:40:33.485Z,59.56
2023-03-08T18:43:01.173Z,59.33
2023-03-08T18:45:28.875Z,58.77
2023-03-08T18:47:56.654Z,58.04
2023-03-08T18:50:25.156Z,57.50
2023-03-08T18:52:52.911Z,57.12
2023-03-08T18:55:22.096Z,56.92
2023-03-08T18:57:49.988Z,56.35
2023-03-08T19:00:18.884Z,56.17
2023-03-08T19:02:46.626Z,56.57
2023-03-08T19:05:14.404Z,56.73
2023-03-08T19:07:42.162Z,57.26
2023-03-08T19:10:14.766Z,57.60
2023-03-08T19:12:44.637Z,57.80
2023-03-08T19:15:12.749Z,58.11
2023-03-08T19:17:40.490Z,58.69
2023-03-08T19:20:09.715Z,59.02
2023-03-08T19:22:39.619Z,59.37
2023-03-08T19:25:08.203Z,59.48
2023-03-08T19:27:35.958Z,59.76
2023-03-08T19:30:05.503Z,60.19
2023-03-08T19:32:33.271Z,60.09
2023-03-08T19:35:01.780Z,59.98
2023-03-08T19:37:29.570Z,60.58
2023-03-08T19:39:57.324Z,60.66
2023-03-08T19:42:25.150Z,60.29
2023-03-08T19:44:52.891Z,60.50
2023-03-08T19:47:21.935Z,60.66
2023-03-08T19:49:50.010Z,60.64
2023-03-08T19:52:17.829Z,61.06
2023-03-08T19:54:46.228Z,60.86
2023-03-08T19:57:14.028Z,60.84
2023-03-08T19:59:41.871Z,60.85
2023-03-08T20:02:12.576Z,60.66
2023-03-08T20:04:41.676Z,61.06
2023-03-08T20:07:09.722Z,60.76
2023-03-08T20:09:37.455Z,60.82
2023-03-08T20:12:05.181Z,61.10
2023-03-08T20:14:32.904Z,60.92
2023-03-08T20:17:01.814Z,60.83
2023-03-08T20:19:31.705Z,60.95
2023-03-08T20:22:01.099Z,61.04
2023-03-08T20:24:28.901Z,61.04
2023-03-08T20:26:56.659Z,61.34
2023-03-08T20:29:24.415Z,61.28
2023-03-08T20:31:52.191Z,61.55
2023-03-08T20:34:20.109Z,61.66
2023-03-08T20:36:47.834Z,61.58
2023-03-08T20:39:18.275Z,61.42
2023-03-08T20:41:45.999Z,61.66
2023-03-08T20:44:13.771Z,61.32
2023-03-08T20:46:41.493Z,61.55
2023-03-08T20:49:11.169Z,61.81
2023-03-08T20:51:38.921Z,61.69
2023-03-08T20:54:06.701Z,61.70
2023-03-08T20:56:35.818Z,61.62
2023-03-08T20:59:03.586Z,61.41
2023-03-08T21:01:33.042Z,61.64
2023-03-08T21:04:01.140Z,62.19
2023-03-08T21:06:31.130Z,61.60
2023-03-08T21:08:59.825Z,61.56
2023-03-08T21:11:28.268Z,61.74
2023-03-08T21:13:57.564Z,61.88
2023-03-08T21:16:27.664Z,61.77
2023-03-08T21:18:56.912Z,61.79
2023-03-08T21:21:27.997Z,61.84
2023-03-08T21:23:56.415Z,61.98
2023-03-08T21:26:25.705Z,61.63
2023-03-08T21:28:53.977Z,62.04
2023-03-08T21:31:23.500Z,62.14
2023-03-08T21:33:53.518Z,62.05
2023-03-08T21:36:21.740Z,62.00
2023-03-08T21:38:52.270Z,61.85
2023-03-08T21:41:21.061Z,62.27
2023-03-08T21:43:48.832Z,61.87
2023-03-08T21:46:16.990Z,61.91
2023-03-08T21:48:46.194Z,61.84
2023-03-08T21:51:14.246Z,62.10
2023-03-08T21:53:42.727Z,62.05
2023-03-08T21:56:11.317Z,62.31
2023-03-08T21:58:39.355Z,62.00
2023-03-08T22:01:08.316Z,62.01
2023-03-08T22:03:36.127Z,62.24
2023-03-08T22:06:05.503Z,62.40
2023-03-08T22:08:33.225Z,62.13
2023-03-08T22:11:00.903Z,62.20
2023-03-08T22:13:28.612Z,62.04
2023-03-08T22:15:56.725Z,62.48
2023-03-08T22:18:25.814Z,61.50
2023-03-08T22:20:54.788Z,62.37
2023-03-08T22:23:23.930Z,61.94
2023-03-08T22:25:51.670Z,62.48
2023-03-08T22:28:19.385Z,62.12
2023-03-08T22:30:47.147Z,62.35
2023-03-08T22:33:15.008Z,62.60
2023-03-08T22:35:45.771Z,62.71
2023-03-08T22:38:13.483Z,62.51
2023-03-08T22:40:43.739Z,62.67
2023-03-08T22:43:12.148Z,62.63
2023-03-08T22:45:39.919Z,62.39
2023-03-08T22:48:07.902Z,62.49
2023-03-08T22:50:35.626Z,62.44
2023-03-08T22:53:03.372Z,62.57
2023-03-08T22:55:31.090Z,62.40
2023-03-08T22:58:00.489Z,62.77
2023-03-08T23:00:28.234Z,62.46
2023-03-08T23:02:57.593Z,62.48
2023-03-08T23:05:25.620Z,62.43
2023-03-08T23:07:53.618Z,62.83
2023-03-08T23:10:21.472Z,62.87
2023-03-08T23:12:49.228Z,62.76
2023-03-08T23:15:18.604Z,62.31
2023-03-08T23:17:46.380Z,62.52
2023-03-08T23:20:14.553Z,62.64
2023-03-08T23:22:44.882Z,62.68
2023-03-08T23:25:12.844Z,62.75
2023-03-08T23:27:40.966Z,62.49
2023-03-08T23:30:14.424Z,62.65
2023-03-08T23:32:43.630Z,62.65
2023-03-08T23:35:12.092Z,62.65
2023-03-08T23:37:40.623Z,62.66
2023-03-08T23:40:11.874Z,62.59
2023-03-08T23:42:39.590Z,62.78
2023-03-08T23:45:09.144Z,62.84
2023-03-08T23:47:37.410Z,62.85
2023-03-08T23:50:07.660Z,62.76
2023-03-08T23:52:35.409Z,62.61
2023-03-08T23:55:03.067Z,62.86
2023-03-08T23:57:30.928Z,63.15
2023-03-08T23:59:59.246Z,62.87
